sensor_id;sensor_type;location;lat;lon;timestamp;P1;durP1;ratioP1;P2;durP2;ratioP2
5452;SDS011;2749;53.576;9.822;2023-05-10T00:00:15;3.67;;;3.37;;
5452;SDS011;2749;53.576;9.822;2023-05-10T00:02:41;5.00;;;3.67;;
5452;SDS011;2749;53.576;9.822;2023-05-10T00:05:07;4.73;;;3.47;;
5452;SDS011;2749;53.576;9.822;2023-05-10T00:07:33;3.53;;;2.67;;
5452;SDS011;2749;53.576;9.822;2023-05-10T00:09:59;3.60;;;3.30;;
5452;SDS011;2749;53.576;9.822;2023-05-10T00:12:25;4.10;;;3.67;;
5452;SDS011;2749;53.576;9.822;2023-05-10T00:14:50;4.27;;;3.20;;
5452;SDS011;2749;53.576;9.822;2023-05-10T00:17:16;6.73;;;3.63;;
5452;SDS011;2749;53.576;9.822;2023-05-10T00:19:42;6.97;;;3.23;;
5452;SDS011;2749;53.576;9.822;2023-05-10T00:22:08;4.53;;;3.30;;
5452;SDS011;2749;53.576;9.822;2023-05-10T00:24:35;3.90;;;3.23;;
5452;SDS011;2749;53.576;9.822;2023-05-10T00:27:01;3.70;;;3.30;;
5452;SDS011;2749;53.576;9.822;2023-05-10T00:29:28;6.57;;;3.13;;
5452;SDS011;2749;53.576;9.822;2023-05-10T00:31:54;4.50;;;2.83;;
5452;SDS011;2749;53.576;9.822;2023-05-10T00:34:21;7.23;;;4.07;;
5452;SDS011;2749;53.576;9.822;2023-05-10T00:36:47;4.53;;;3.90;;
5452;SDS011;2749;53.576;9.822;2023-05-10T00:39:12;4.70;;;3.17;;
5452;SDS011;2749;53.576;9.822;2023-05-10T00:41:38;4.33;;;3.30;;
5452;SDS011;2749;53.576;9.822;2023-05-10T00:44:05;5.50;;;3.73;;
5452;SDS011;2749;53.576;9.822;2023-05-10T00:46:31;3.80;;;3.43;;
5452;SDS011;2749;53.576;9.822;2023-05-10T00:48:57;4.43;;;3.27;;
5452;SDS011;2749;53.576;9.822;2023-05-10T00:51:23;5.10;;;3.37;;
5452;SDS011;2749;53.576;9.822;2023-05-10T00:53:49;6.33;;;3.43;;
5452;SDS011;2749;53.576;9.822;2023-05-10T00:56:16;4.60;;;3.57;;
5452;SDS011;2749;53.576;9.822;2023-05-10T00:58:43;6.03;;;4.23;;
5452;SDS011;2749;53.576;9.822;2023-05-10T01:01:09;6.43;;;3.73;;
5452;SDS011;2749;53.576;9.822;2023-05-10T01:03:35;4.50;;;3.70;;
5452;SDS011;2749;53.576;9.822;2023-05-10T01:06:01;3.70;;;3.40;;
5452;SDS011;2749;53.576;9.822;2023-05-10T01:08:28;4.80;;;3.73;;
5452;SDS011;2749;53.576;9.822;2023-05-10T01:10:54;4.60;;;4.20;;
5452;SDS011;2749;53.576;9.822;2023-05-10T01:13:39;4.37;;;3.63;;
5452;SDS011;2749;53.576;9.822;2023-05-10T01:16:07;6.07;;;4.23;;
5452;SDS011;2749;53.576;9.822;2023-05-10T01:18:34;4.30;;;3.90;;
5452;SDS011;2749;53.576;9.822;2023-05-10T01:23:40;4.10;;;3.70;;
5452;SDS011;2749;53.576;9.822;2023-05-10T01:29:11;4.10;;;3.70;;
5452;SDS011;2749;53.576;9.822;2023-05-10T01:34:25;3.80;;;3.40;;
5452;SDS011;2749;53.576;9.822;2023-05-10T01:37:01;7.10;;;3.53;;
5452;SDS011;2749;53.576;9.822;2023-05-10T01:39:30;6.07;;;3.97;;
5452;SDS011;2749;53.576;9.822;2023-05-10T01:42:03;8.33;;;4.20;;
5452;SDS011;2749;53.576;9.822;2023-05-10T01:49:40;4.60;;;4.00;;
5452;SDS011;2749;53.576;9.822;2023-05-10T01:52:08;5.93;;;3.70;;
5452;SDS011;2749;53.576;9.822;2023-05-10T01:54:35;3.67;;;3.37;;
5452;SDS011;2749;53.576;9.822;2023-05-10T01:57:03;4.40;;;4.00;;
5452;SDS011;2749;53.576;9.822;2023-05-10T01:59:31;4.33;;;3.60;;
5452;SDS011;2749;53.576;9.822;2023-05-10T02:02:05;5.10;;;4.60;;
5452;SDS011;2749;53.576;9.822;2023-05-10T02:04:31;4.40;;;3.60;;
5452;SDS011;2749;53.576;9.822;2023-05-10T02:06:59;5.30;;;4.20;;
5452;SDS011;2749;53.576;9.822;2023-05-10T02:09:25;4.13;;;3.73;;
5452;SDS011;2749;53.576;9.822;2023-05-10T02:11:53;4.83;;;4.10;;
5452;SDS011;2749;53.576;9.822;2023-05-10T02:14:19;5.30;;;4.03;;
5452;SDS011;2749;53.576;9.822;2023-05-10T02:16:46;4.83;;;4.20;;
5452;SDS011;2749;53.576;9.822;2023-05-10T02:19:12;4.17;;;2.90;;
5452;SDS011;2749;53.576;9.822;2023-05-10T02:21:39;5.27;;;3.80;;
5452;SDS011;2749;53.576;9.822;2023-05-10T02:24:06;4.33;;;4.03;;
5452;SDS011;2749;53.576;9.822;2023-05-10T02:26:33;4.50;;;4.10;;
5452;SDS011;2749;53.576;9.822;2023-05-10T02:29:02;4.70;;;4.30;;
5452;SDS011;2749;53.576;9.822;2023-05-10T02:31:30;4.57;;;4.17;;
5452;SDS011;2749;53.576;9.822;2023-05-10T02:33:56;6.13;;;4.13;;
5452;SDS011;2749;53.576;9.822;2023-05-10T02:36:22;4.10;;;3.70;;
5452;SDS011;2749;53.576;9.822;2023-05-10T02:38:48;5.97;;;3.37;;
5452;SDS011;2749;53.576;9.822;2023-05-10T02:41:15;6.50;;;4.17;;
5452;SDS011;2749;53.576;9.822;2023-05-10T02:43:41;4.50;;;4.07;;
5452;SDS011;2749;53.576;9.822;2023-05-10T02:46:08;9.07;;;4.43;;
5452;SDS011;2749;53.576;9.822;2023-05-10T02:48:34;4.77;;;3.30;;
5452;SDS011;2749;53.576;9.822;2023-05-10T02:51:00;5.07;;;3.93;;
5452;SDS011;2749;53.576;9.822;2023-05-10T02:53:33;4.67;;;4.00;;
5452;SDS011;2749;53.576;9.822;2023-05-10T02:56:00;10.73;;;5.70;;
5452;SDS011;2749;53.576;9.822;2023-05-10T02:58:28;4.77;;;4.27;;
5452;SDS011;2749;53.576;9.822;2023-05-10T03:00:54;8.97;;;4.77;;
5452;SDS011;2749;53.576;9.822;2023-05-10T03:03:20;4.03;;;3.57;;
5452;SDS011;2749;53.576;9.822;2023-05-10T03:05:46;4.70;;;3.90;;
5452;SDS011;2749;53.576;9.822;2023-05-10T03:08:12;4.80;;;4.30;;
5452;SDS011;2749;53.576;9.822;2023-05-10T03:10:41;7.20;;;5.67;;
5452;SDS011;2749;53.576;9.822;2023-05-10T03:13:24;5.30;;;4.87;;
5452;SDS011;2749;53.576;9.822;2023-05-10T03:16:07;4.70;;;4.30;;
5452;SDS011;2749;53.576;9.822;2023-05-10T03:18:36;5.07;;;4.60;;
5452;SDS011;2749;53.576;9.822;2023-05-10T03:21:04;4.27;;;3.87;;
5452;SDS011;2749;53.576;9.822;2023-05-10T03:23:35;11.70;;;4.17;;
5452;SDS011;2749;53.576;9.822;2023-05-10T03:26:01;4.87;;;4.40;;
5452;SDS011;2749;53.576;9.822;2023-05-10T03:28:28;7.23;;;4.17;;
5452;SDS011;2749;53.576;9.822;2023-05-10T03:30:54;4.30;;;3.67;;
5452;SDS011;2749;53.576;9.822;2023-05-10T03:33:20;8.50;;;4.80;;
5452;SDS011;2749;53.576;9.822;2023-05-10T03:35:46;6.77;;;4.13;;
5452;SDS011;2749;53.576;9.822;2023-05-10T03:38:12;5.00;;;4.47;;
5452;SDS011;2749;53.576;9.822;2023-05-10T03:40:38;5.07;;;4.17;;
5452;SDS011;2749;53.576;9.822;2023-05-10T03:43:04;5.63;;;4.60;;
5452;SDS011;2749;53.576;9.822;2023-05-10T03:45:30;6.00;;;3.87;;
5452;SDS011;2749;53.576;9.822;2023-05-10T03:47:59;6.23;;;5.00;;
5452;SDS011;2749;53.576;9.822;2023-05-10T03:50:25;6.37;;;4.70;;
5452;SDS011;2749;53.576;9.822;2023-05-10T03:52:51;4.97;;;3.83;;
5452;SDS011;2749;53.576;9.822;2023-05-10T03:55:17;4.57;;;4.00;;
5452;SDS011;2749;53.576;9.822;2023-05-10T03:57:43;8.00;;;4.00;;
5452;SDS011;2749;53.576;9.822;2023-05-10T04:00:09;7.57;;;4.00;;
5452;SDS011;2749;53.576;9.822;2023-05-10T04:02:36;5.50;;;3.63;;
5452;SDS011;2749;53.576;9.822;2023-05-10T04:05:02;8.43;;;3.93;;
5452;SDS011;2749;53.576;9.822;2023-05-10T04:07:28;5.00;;;4.60;;
5452;SDS011;2749;53.576;9.822;2023-05-10T04:09:54;11.63;;;4.17;;
5452;SDS011;2749;53.576;9.822;2023-05-10T04:12:20;4.27;;;3.90;;
5452;SDS011;2749;53.576;9.822;2023-05-10T04:14:46;6.63;;;4.50;;
5452;SDS011;2749;53.576;9.822;2023-05-10T04:17:12;6.23;;;4.70;;
5452;SDS011;2749;53.576;9.822;2023-05-10T04:19:38;4.70;;;3.93;;
5452;SDS011;2749;53.576;9.822;2023-05-10T04:22:04;7.57;;;4.57;;
5452;SDS011;2749;53.576;9.822;2023-05-10T04:24:29;5.50;;;4.63;;
5452;SDS011;2749;53.576;9.822;2023-05-10T04:26:55;5.90;;;4.37;;
5452;SDS011;2749;53.576;9.822;2023-05-10T04:29:21;5.43;;;4.27;;
5452;SDS011;2749;53.576;9.822;2023-05-10T04:31:47;4.63;;;4.23;;
5452;SDS011;2749;53.576;9.822;2023-05-10T04:34:13;7.43;;;4.93;;
5452;SDS011;2749;53.576;9.822;2023-05-10T04:36:39;4.80;;;4.40;;
5452;SDS011;2749;53.576;9.822;2023-05-10T04:39:05;7.07;;;5.17;;
5452;SDS011;2749;53.576;9.822;2023-05-10T04:41:31;4.83;;;4.30;;
5452;SDS011;2749;53.576;9.822;2023-05-10T04:43:57;5.00;;;4.50;;
5452;SDS011;2749;53.576;9.822;2023-05-10T04:46:23;7.70;;;4.23;;
5452;SDS011;2749;53.576;9.822;2023-05-10T04:48:49;6.40;;;4.10;;
5452;SDS011;2749;53.576;9.822;2023-05-10T04:51:15;4.80;;;4.30;;
5452;SDS011;2749;53.576;9.822;2023-05-10T04:53:41;6.43;;;3.87;;
5452;SDS011;2749;53.576;9.822;2023-05-10T04:56:07;4.40;;;4.10;;
5452;SDS011;2749;53.576;9.822;2023-05-10T04:58:33;5.03;;;4.43;;
5452;SDS011;2749;53.576;9.822;2023-05-10T05:01:06;4.93;;;4.43;;
5452;SDS011;2749;53.576;9.822;2023-05-10T05:03:35;5.93;;;4.70;;
5452;SDS011;2749;53.576;9.822;2023-05-10T05:06:01;4.40;;;4.00;;
5452;SDS011;2749;53.576;9.822;2023-05-10T05:08:27;8.63;;;3.70;;
5452;SDS011;2749;53.576;9.822;2023-05-10T05:10:53;5.40;;;4.90;;
5452;SDS011;2749;53.576;9.822;2023-05-10T05:13:19;4.73;;;4.20;;
5452;SDS011;2749;53.576;9.822;2023-05-10T05:15:45;5.03;;;4.53;;
5452;SDS011;2749;53.576;9.822;2023-05-10T05:18:11;25.40;;;5.20;;
5452;SDS011;2749;53.576;9.822;2023-05-10T05:20:37;8.40;;;5.63;;
5452;SDS011;2749;53.576;9.822;2023-05-10T05:23:03;6.17;;;4.80;;
5452;SDS011;2749;53.576;9.822;2023-05-10T05:25:29;6.60;;;4.60;;
5452;SDS011;2749;53.576;9.822;2023-05-10T05:27:55;5.17;;;4.67;;
5452;SDS011;2749;53.576;9.822;2023-05-10T05:30:21;8.97;;;5.10;;
5452;SDS011;2749;53.576;9.822;2023-05-10T05:32:47;5.70;;;4.90;;
5452;SDS011;2749;53.576;9.822;2023-05-10T05:35:13;8.20;;;4.13;;
5452;SDS011;2749;53.576;9.822;2023-05-10T05:37:38;5.90;;;5.10;;
5452;SDS011;2749;53.576;9.822;2023-05-10T05:40:05;4.10;;;3.77;;
5452;SDS011;2749;53.576;9.822;2023-05-10T05:42:31;6.50;;;4.70;;
5452;SDS011;2749;53.576;9.822;2023-05-10T05:44:57;6.00;;;4.33;;
5452;SDS011;2749;53.576;9.822;2023-05-10T05:47:23;4.73;;;4.43;;
5452;SDS011;2749;53.576;9.822;2023-05-10T05:49:49;5.67;;;4.67;;
5452;SDS011;2749;53.576;9.822;2023-05-10T05:52:15;5.00;;;4.50;;
5452;SDS011;2749;53.576;9.822;2023-05-10T05:54:41;6.73;;;4.47;;
5452;SDS011;2749;53.576;9.822;2023-05-10T05:57:07;7.10;;;4.90;;
5452;SDS011;2749;53.576;9.822;2023-05-10T05:59:33;7.13;;;5.00;;
5452;SDS011;2749;53.576;9.822;2023-05-10T06:01:59;5.63;;;4.80;;
5452;SDS011;2749;53.576;9.822;2023-05-10T06:04:25;4.47;;;4.07;;
5452;SDS011;2749;53.576;9.822;2023-05-10T06:06:51;5.47;;;4.77;;
5452;SDS011;2749;53.576;9.822;2023-05-10T06:09:17;6.00;;;5.23;;
5452;SDS011;2749;53.576;9.822;2023-05-10T06:11:43;5.67;;;4.70;;
5452;SDS011;2749;53.576;9.822;2023-05-10T06:14:09;7.97;;;5.13;;
5452;SDS011;2749;53.576;9.822;2023-05-10T06:16:35;5.90;;;5.30;;
5452;SDS011;2749;53.576;9.822;2023-05-10T06:19:02;5.27;;;4.77;;
5452;SDS011;2749;53.576;9.822;2023-05-10T06:21:28;5.20;;;4.70;;
5452;SDS011;2749;53.576;9.822;2023-05-10T06:23:54;5.70;;;4.93;;
5452;SDS011;2749;53.576;9.822;2023-05-10T06:26:20;7.37;;;4.40;;
5452;SDS011;2749;53.576;9.822;2023-05-10T06:28:46;5.47;;;5.07;;
5452;SDS011;2749;53.576;9.822;2023-05-10T06:31:12;10.17;;;4.80;;
5452;SDS011;2749;53.576;9.822;2023-05-10T06:33:38;5.77;;;4.70;;
5452;SDS011;2749;53.576;9.822;2023-05-10T06:36:04;6.17;;;5.30;;
5452;SDS011;2749;53.576;9.822;2023-05-10T06:38:30;7.03;;;5.50;;
5452;SDS011;2749;53.576;9.822;2023-05-10T06:40:56;5.80;;;4.87;;
5452;SDS011;2749;53.576;9.822;2023-05-10T06:43:22;6.47;;;5.20;;
5452;SDS011;2749;53.576;9.822;2023-05-10T06:45:49;8.07;;;5.60;;
5452;SDS011;2749;53.576;9.822;2023-05-10T06:48:15;12.90;;;5.60;;
5452;SDS011;2749;53.576;9.822;2023-05-10T06:50:41;5.77;;;5.17;;
5452;SDS011;2749;53.576;9.822;2023-05-10T06:53:07;7.77;;;5.63;;
5452;SDS011;2749;53.576;9.822;2023-05-10T06:55:33;9.13;;;5.27;;
5452;SDS011;2749;53.576;9.822;2023-05-10T06:57:59;5.33;;;4.23;;
5452;SDS011;2749;53.576;9.822;2023-05-10T07:00:25;5.37;;;4.87;;
5452;SDS011;2749;53.576;9.822;2023-05-10T07:02:51;5.33;;;4.83;;
5452;SDS011;2749;53.576;9.822;2023-05-10T07:05:17;15.93;;;5.03;;
5452;SDS011;2749;53.576;9.822;2023-05-10T07:07:44;6.20;;;5.60;;
5452;SDS011;2749;53.576;9.822;2023-05-10T07:10:10;5.20;;;4.80;;
5452;SDS011;2749;53.576;9.822;2023-05-10T07:12:36;5.03;;;4.53;;
5452;SDS011;2749;53.576;9.822;2023-05-10T07:15:03;6.93;;;5.73;;
5452;SDS011;2749;53.576;9.822;2023-05-10T07:17:29;7.83;;;5.03;;
5452;SDS011;2749;53.576;9.822;2023-05-10T07:19:55;6.60;;;5.47;;
5452;SDS011;2749;53.576;9.822;2023-05-10T07:22:21;11.87;;;5.70;;
5452;SDS011;2749;53.576;9.822;2023-05-10T07:24:47;5.77;;;5.17;;
5452;SDS011;2749;53.576;9.822;2023-05-10T07:27:12;8.53;;;5.30;;
5452;SDS011;2749;53.576;9.822;2023-05-10T07:29:38;12.33;;;5.60;;
5452;SDS011;2749;53.576;9.822;2023-05-10T07:32:04;6.00;;;5.50;;
5452;SDS011;2749;53.576;9.822;2023-05-10T07:34:30;6.80;;;5.47;;
5452;SDS011;2749;53.576;9.822;2023-05-10T07:37:00;6.03;;;5.20;;
5452;SDS011;2749;53.576;9.822;2023-05-10T07:39:29;5.90;;;4.33;;
5452;SDS011;2749;53.576;9.822;2023-05-10T07:41:55;7.67;;;4.90;;
5452;SDS011;2749;53.576;9.822;2023-05-10T07:44:21;5.60;;;4.37;;
5452;SDS011;2749;53.576;9.822;2023-05-10T07:46:47;9.00;;;5.47;;
5452;SDS011;2749;53.576;9.822;2023-05-10T07:49:13;4.93;;;4.47;;
5452;SDS011;2749;53.576;9.822;2023-05-10T07:51:39;5.37;;;4.83;;
5452;SDS011;2749;53.576;9.822;2023-05-10T07:54:05;6.93;;;4.87;;
5452;SDS011;2749;53.576;9.822;2023-05-10T07:56:31;4.87;;;4.40;;
5452;SDS011;2749;53.576;9.822;2023-05-10T07:59:01;5.50;;;4.83;;
5452;SDS011;2749;53.576;9.822;2023-05-10T08:01:30;11.53;;;5.13;;
5452;SDS011;2749;53.576;9.822;2023-05-10T08:03:57;8.07;;;4.30;;
5452;SDS011;2749;53.576;9.822;2023-05-10T08:06:23;6.67;;;5.20;;
5452;SDS011;2749;53.576;9.822;2023-05-10T08:08:51;5.27;;;4.80;;
5452;SDS011;2749;53.576;9.822;2023-05-10T08:11:19;5.27;;;4.77;;
5452;SDS011;2749;53.576;9.822;2023-05-10T08:13:45;6.20;;;3.80;;
5452;SDS011;2749;53.576;9.822;2023-05-10T08:16:11;6.37;;;5.63;;
5452;SDS011;2749;53.576;9.822;2023-05-10T08:18:38;7.20;;;5.77;;
5452;SDS011;2749;53.576;9.822;2023-05-10T08:21:04;4.60;;;4.20;;
5452;SDS011;2749;53.576;9.822;2023-05-10T08:23:30;7.10;;;5.80;;
5452;SDS011;2749;53.576;9.822;2023-05-10T08:25:56;3.90;;;3.60;;
5452;SDS011;2749;53.576;9.822;2023-05-10T08:28:22;6.57;;;5.30;;
5452;SDS011;2749;53.576;9.822;2023-05-10T08:30:49;5.53;;;5.03;;
5452;SDS011;2749;53.576;9.822;2023-05-10T08:33:15;9.40;;;5.23;;
5452;SDS011;2749;53.576;9.822;2023-05-10T08:35:41;5.17;;;4.70;;
5452;SDS011;2749;53.576;9.822;2023-05-10T08:38:07;5.13;;;4.17;;
5452;SDS011;2749;53.576;9.822;2023-05-10T08:40:33;7.03;;;5.23;;
5452;SDS011;2749;53.576;9.822;2023-05-10T08:43:11;5.30;;;4.80;;
5452;SDS011;2749;53.576;9.822;2023-05-10T08:45:40;8.43;;;4.63;;
5452;SDS011;2749;53.576;9.822;2023-05-10T08:48:07;5.10;;;4.63;;
5452;SDS011;2749;53.576;9.822;2023-05-10T08:50:35;5.87;;;4.97;;
5452;SDS011;2749;53.576;9.822;2023-05-10T08:53:03;5.67;;;5.17;;
5452;SDS011;2749;53.576;9.822;2023-05-10T08:55:29;6.10;;;5.50;;
5452;SDS011;2749;53.576;9.822;2023-05-10T08:57:55;7.33;;;5.00;;
5452;SDS011;2749;53.576;9.822;2023-05-10T09:00:21;8.00;;;4.80;;
5452;SDS011;2749;53.576;9.822;2023-05-10T09:02:49;8.10;;;5.13;;
5452;SDS011;2749;53.576;9.822;2023-05-10T09:05:15;6.20;;;5.00;;
5452;SDS011;2749;53.576;9.822;2023-05-10T09:07:42;7.17;;;6.03;;
5452;SDS011;2749;53.576;9.822;2023-05-10T09:10:08;9.23;;;6.23;;
5452;SDS011;2749;53.576;9.822;2023-05-10T09:12:35;5.83;;;5.33;;
5452;SDS011;2749;53.576;9.822;2023-05-10T09:15:00;9.90;;;6.47;;
5452;SDS011;2749;53.576;9.822;2023-05-10T09:17:27;6.30;;;5.70;;
5452;SDS011;2749;53.576;9.822;2023-05-10T09:19:58;6.60;;;5.50;;
5452;SDS011;2749;53.576;9.822;2023-05-10T09:22:24;8.10;;;6.43;;
5452;SDS011;2749;53.576;9.822;2023-05-10T09:27:35;7.33;;;5.60;;
5452;SDS011;2749;53.576;9.822;2023-05-10T09:30:02;6.53;;;5.90;;
5452;SDS011;2749;53.576;9.822;2023-05-10T09:32:35;7.20;;;5.73;;
5452;SDS011;2749;53.576;9.822;2023-05-10T09:37:34;6.60;;;6.00;;
5452;SDS011;2749;53.576;9.822;2023-05-10T09:40:00;8.87;;;6.47;;
5452;SDS011;2749;53.576;9.822;2023-05-10T09:42:26;9.33;;;6.10;;
5452;SDS011;2749;53.576;9.822;2023-05-10T09:44:51;6.70;;;6.10;;
5452;SDS011;2749;53.576;9.822;2023-05-10T09:47:17;7.97;;;6.03;;
5452;SDS011;2749;53.576;9.822;2023-05-10T09:49:44;7.27;;;6.57;;
5452;SDS011;2749;53.576;9.822;2023-05-10T09:52:09;7.70;;;5.80;;
5452;SDS011;2749;53.576;9.822;2023-05-10T09:54:35;7.03;;;6.47;;
5452;SDS011;2749;53.576;9.822;2023-05-10T09:57:01;7.57;;;6.80;;
5452;SDS011;2749;53.576;9.822;2023-05-10T09:59:28;7.17;;;6.20;;
5452;SDS011;2749;53.576;9.822;2023-05-10T10:01:55;7.37;;;6.63;;
5452;SDS011;2749;53.576;9.822;2023-05-10T10:04:22;7.90;;;7.10;;
5452;SDS011;2749;53.576;9.822;2023-05-10T10:06:58;7.80;;;7.00;;
5452;SDS011;2749;53.576;9.822;2023-05-10T10:09:24;8.30;;;7.50;;
5452;SDS011;2749;53.576;9.822;2023-05-10T10:11:51;8.10;;;7.30;;
5452;SDS011;2749;53.576;9.822;2023-05-10T10:14:19;10.20;;;7.20;;
5452;SDS011;2749;53.576;9.822;2023-05-10T10:16:45;7.60;;;6.90;;
5452;SDS011;2749;53.576;9.822;2023-05-10T10:19:11;8.53;;;7.73;;
5452;SDS011;2749;53.576;9.822;2023-05-10T10:21:38;8.47;;;7.77;;
5452;SDS011;2749;53.576;9.822;2023-05-10T10:24:03;8.63;;;7.83;;
5452;SDS011;2749;53.576;9.822;2023-05-10T10:26:30;9.10;;;8.20;;
5452;SDS011;2749;53.576;9.822;2023-05-10T10:31:40;9.60;;;8.77;;
5452;SDS011;2749;53.576;9.822;2023-05-10T10:34:08;8.33;;;7.50;;
5452;SDS011;2749;53.576;9.822;2023-05-10T10:36:43;11.53;;;7.83;;
5452;SDS011;2749;53.576;9.822;2023-05-10T10:39:10;8.47;;;7.70;;
5452;SDS011;2749;53.576;9.822;2023-05-10T10:41:37;9.50;;;8.47;;
5452;SDS011;2749;53.576;9.822;2023-05-10T10:54:58;10.83;;;9.73;;
5452;SDS011;2749;53.576;9.822;2023-05-10T10:57:25;12.83;;;11.20;;
5452;SDS011;2749;53.576;9.822;2023-05-10T11:02:43;9.50;;;8.60;;
5452;SDS011;2749;53.576;9.822;2023-05-10T11:07:54;9.43;;;8.53;;
5452;SDS011;2749;53.576;9.822;2023-05-10T11:10:20;10.93;;;9.77;;
5452;SDS011;2749;53.576;9.822;2023-05-10T11:12:53;8.60;;;7.80;;
5452;SDS011;2749;53.576;9.822;2023-05-10T11:15:19;9.83;;;8.83;;
5452;SDS011;2749;53.576;9.822;2023-05-10T11:17:47;10.03;;;9.13;;
5452;SDS011;2749;53.576;9.822;2023-05-10T11:20:16;9.83;;;7.70;;
5452;SDS011;2749;53.576;9.822;2023-05-10T11:22:53;10.60;;;8.90;;
5452;SDS011;2749;53.576;9.822;2023-05-10T11:25:20;10.10;;;9.10;;
5452;SDS011;2749;53.576;9.822;2023-05-10T11:27:48;10.30;;;9.13;;
5452;SDS011;2749;53.576;9.822;2023-05-10T11:30:14;9.77;;;8.87;;
5452;SDS011;2749;53.576;9.822;2023-05-10T11:32:40;10.93;;;9.77;;
5452;SDS011;2749;53.576;9.822;2023-05-10T11:35:10;10.37;;;8.50;;
5452;SDS011;2749;53.576;9.822;2023-05-10T11:37:36;11.17;;;9.57;;
5452;SDS011;2749;53.576;9.822;2023-05-10T11:40:06;10.20;;;6.97;;
5452;SDS011;2749;53.576;9.822;2023-05-10T11:42:32;8.23;;;7.43;;
5452;SDS011;2749;53.576;9.822;2023-05-10T11:44:59;8.97;;;8.07;;
5452;SDS011;2749;53.576;9.822;2023-05-10T11:47:25;8.47;;;7.70;;
5452;SDS011;2749;53.576;9.822;2023-05-10T11:49:51;11.77;;;8.20;;
5452;SDS011;2749;53.576;9.822;2023-05-10T11:52:18;9.37;;;8.47;;
5452;SDS011;2749;53.576;9.822;2023-05-10T11:54:51;8.87;;;8.03;;
5452;SDS011;2749;53.576;9.822;2023-05-10T11:57:20;7.80;;;7.10;;
5452;SDS011;2749;53.576;9.822;2023-05-10T11:59:46;8.17;;;7.40;;
5452;SDS011;2749;53.576;9.822;2023-05-10T12:02:13;8.40;;;7.60;;
5452;SDS011;2749;53.576;9.822;2023-05-10T12:04:39;8.00;;;7.20;;
5452;SDS011;2749;53.576;9.822;2023-05-10T12:07:05;6.77;;;6.17;;
5452;SDS011;2749;53.576;9.822;2023-05-10T12:09:31;8.27;;;7.57;;
5452;SDS011;2749;53.576;9.822;2023-05-10T12:11:57;8.70;;;7.10;;
5452;SDS011;2749;53.576;9.822;2023-05-10T12:14:23;7.67;;;6.90;;
5452;SDS011;2749;53.576;9.822;2023-05-10T12:16:49;8.23;;;7.13;;
5452;SDS011;2749;53.576;9.822;2023-05-10T12:19:19;8.13;;;7.33;;
5452;SDS011;2749;53.576;9.822;2023-05-10T12:21:46;9.17;;;7.93;;
5452;SDS011;2749;53.576;9.822;2023-05-10T12:24:12;10.70;;;7.27;;
5452;SDS011;2749;53.576;9.822;2023-05-10T12:26:41;7.87;;;7.10;;
5452;SDS011;2749;53.576;9.822;2023-05-10T12:29:13;7.70;;;7.00;;
5452;SDS011;2749;53.576;9.822;2023-05-10T12:34:48;8.73;;;7.87;;
5452;SDS011;2749;53.576;9.822;2023-05-10T12:37:07;8.83;;;7.93;;
5452;SDS011;2749;53.576;9.822;2023-05-10T12:39:43;7.67;;;6.87;;
5452;SDS011;2749;53.576;9.822;2023-05-10T12:42:10;7.60;;;6.90;;
5452;SDS011;2749;53.576;9.822;2023-05-10T12:44:36;7.60;;;6.90;;
5452;SDS011;2749;53.576;9.822;2023-05-10T12:47:02;7.60;;;6.90;;
5452;SDS011;2749;53.576;9.822;2023-05-10T12:49:28;8.47;;;7.77;;
5452;SDS011;2749;53.576;9.822;2023-05-10T12:51:54;8.90;;;7.43;;
5452;SDS011;2749;53.576;9.822;2023-05-10T12:54:20;7.50;;;6.80;;
5452;SDS011;2749;53.576;9.822;2023-05-10T12:56:46;6.40;;;5.77;;
5452;SDS011;2749;53.576;9.822;2023-05-10T12:59:12;6.20;;;5.67;;
5452;SDS011;2749;53.576;9.822;2023-05-10T13:01:38;6.23;;;5.70;;
5452;SDS011;2749;53.576;9.822;2023-05-10T13:04:04;6.60;;;6.00;;
5452;SDS011;2749;53.576;9.822;2023-05-10T13:06:30;6.87;;;6.30;;
5452;SDS011;2749;53.576;9.822;2023-05-10T13:08:56;6.60;;;6.00;;
5452;SDS011;2749;53.576;9.822;2023-05-10T13:11:22;7.10;;;6.40;;
5452;SDS011;2749;53.576;9.822;2023-05-10T13:13:48;7.50;;;6.13;;
5452;SDS011;2749;53.576;9.822;2023-05-10T13:16:14;7.10;;;6.50;;
5452;SDS011;2749;53.576;9.822;2023-05-10T13:18:40;7.07;;;6.40;;
5452;SDS011;2749;53.576;9.822;2023-05-10T13:21:06;7.60;;;6.90;;
5452;SDS011;2749;53.576;9.822;2023-05-10T13:23:32;7.17;;;6.57;;
5452;SDS011;2749;53.576;9.822;2023-05-10T13:25:58;6.67;;;6.10;;
5452;SDS011;2749;53.576;9.822;2023-05-10T13:28:24;8.33;;;7.63;;
5452;SDS011;2749;53.576;9.822;2023-05-10T13:30:51;6.50;;;5.90;;
5452;SDS011;2749;53.576;9.822;2023-05-10T13:33:17;6.80;;;6.20;;
5452;SDS011;2749;53.576;9.822;2023-05-10T13:35:43;9.10;;;7.20;;
5452;SDS011;2749;53.576;9.822;2023-05-10T13:38:10;6.70;;;6.10;;
5452;SDS011;2749;53.576;9.822;2023-05-10T13:40:35;9.13;;;7.10;;
5452;SDS011;2749;53.576;9.822;2023-05-10T13:43:01;7.13;;;6.50;;
5452;SDS011;2749;53.576;9.822;2023-05-10T13:45:27;6.40;;;5.93;;
5452;SDS011;2749;53.576;9.822;2023-05-10T13:47:53;7.10;;;6.50;;
5452;SDS011;2749;53.576;9.822;2023-05-10T13:50:19;7.67;;;7.07;;
5452;SDS011;2749;53.576;9.822;2023-05-10T13:52:45;7.30;;;6.60;;
5452;SDS011;2749;53.576;9.822;2023-05-10T13:55:12;7.53;;;6.90;;
5452;SDS011;2749;53.576;9.822;2023-05-10T13:57:38;8.13;;;7.33;;
5452;SDS011;2749;53.576;9.822;2023-05-10T14:00:04;9.40;;;8.23;;
5452;SDS011;2749;53.576;9.822;2023-05-10T14:02:30;8.60;;;7.70;;
5452;SDS011;2749;53.576;9.822;2023-05-10T14:04:56;7.63;;;6.93;;
5452;SDS011;2749;53.576;9.822;2023-05-10T14:07:22;11.97;;;10.80;;
5452;SDS011;2749;53.576;9.822;2023-05-10T14:09:48;8.23;;;7.43;;
5452;SDS011;2749;53.576;9.822;2023-05-10T14:12:14;8.73;;;7.93;;
5452;SDS011;2749;53.576;9.822;2023-05-10T14:14:41;7.97;;;7.27;;
5452;SDS011;2749;53.576;9.822;2023-05-10T14:17:07;8.13;;;7.40;;
5452;SDS011;2749;53.576;9.822;2023-05-10T14:19:33;7.20;;;6.60;;
5452;SDS011;2749;53.576;9.822;2023-05-10T14:21:59;8.87;;;7.97;;
5452;SDS011;2749;53.576;9.822;2023-05-10T14:24:25;7.17;;;6.57;;
5452;SDS011;2749;53.576;9.822;2023-05-10T14:26:51;6.93;;;6.33;;
5452;SDS011;2749;53.576;9.822;2023-05-10T14:29:19;7.43;;;6.73;;
5452;SDS011;2749;53.576;9.822;2023-05-10T14:31:45;7.17;;;6.47;;
5452;SDS011;2749;53.576;9.822;2023-05-10T14:34:11;7.23;;;6.60;;
5452;SDS011;2749;53.576;9.822;2023-05-10T14:36:37;10.93;;;7.63;;
5452;SDS011;2749;53.576;9.822;2023-05-10T14:39:03;7.53;;;6.93;;
5452;SDS011;2749;53.576;9.822;2023-05-10T14:41:29;7.97;;;7.07;;
5452;SDS011;2749;53.576;9.822;2023-05-10T14:43:55;8.10;;;7.00;;
5452;SDS011;2749;53.576;9.822;2023-05-10T14:46:21;7.47;;;6.87;;
5452;SDS011;2749;53.576;9.822;2023-05-10T14:48:47;6.90;;;6.33;;
5452;SDS011;2749;53.576;9.822;2023-05-10T14:51:13;6.43;;;5.93;;
5452;SDS011;2749;53.576;9.822;2023-05-10T14:53:39;6.93;;;6.33;;
5452;SDS011;2749;53.576;9.822;2023-05-10T14:56:05;6.70;;;6.13;;
5452;SDS011;2749;53.576;9.822;2023-05-10T14:58:31;7.77;;;7.17;;
5452;SDS011;2749;53.576;9.822;2023-05-10T15:00:57;7.73;;;6.80;;
5452;SDS011;2749;53.576;9.822;2023-05-10T15:03:23;5.83;;;5.33;;
5452;SDS011;2749;53.576;9.822;2023-05-10T15:05:49;7.40;;;6.70;;
5452;SDS011;2749;53.576;9.822;2023-05-10T15:08:16;7.50;;;6.67;;
5452;SDS011;2749;53.576;9.822;2023-05-10T15:10:42;7.60;;;6.90;;
5452;SDS011;2749;53.576;9.822;2023-05-10T15:13:08;6.60;;;6.00;;
5452;SDS011;2749;53.576;9.822;2023-05-10T15:15:34;8.70;;;8.00;;
5452;SDS011;2749;53.576;9.822;2023-05-10T15:18:00;7.40;;;6.80;;
5452;SDS011;2749;53.576;9.822;2023-05-10T15:20:26;6.80;;;6.20;;
5452;SDS011;2749;53.576;9.822;2023-05-10T15:22:52;8.33;;;7.47;;
5452;SDS011;2749;53.576;9.822;2023-05-10T15:25:17;7.27;;;6.57;;
5452;SDS011;2749;53.576;9.822;2023-05-10T15:27:43;7.30;;;6.57;;
5452;SDS011;2749;53.576;9.822;2023-05-10T15:30:10;6.83;;;6.23;;
5452;SDS011;2749;53.576;9.822;2023-05-10T15:32:36;8.17;;;7.57;;
5452;SDS011;2749;53.576;9.822;2023-05-10T15:35:02;6.97;;;6.37;;
5452;SDS011;2749;53.576;9.822;2023-05-10T15:37:28;7.97;;;7.27;;
5452;SDS011;2749;53.576;9.822;2023-05-10T15:39:54;7.77;;;6.97;;
5452;SDS011;2749;53.576;9.822;2023-05-10T15:42:27;8.90;;;8.20;;
5452;SDS011;2749;53.576;9.822;2023-05-10T15:44:53;7.50;;;6.80;;
5452;SDS011;2749;53.576;9.822;2023-05-10T15:47:19;8.33;;;7.13;;
5452;SDS011;2749;53.576;9.822;2023-05-10T15:49:45;7.60;;;6.90;;
5452;SDS011;2749;53.576;9.822;2023-05-10T15:52:11;6.93;;;5.90;;